Aleknagik, AK (99555)

5:39 AM AKST on March 05, 2015 (GMT -0900)
Dillingham | Change Station
CLOSE
Current Station
Airport
Location: Dillingham,
Elevation: 95 ft
Nearby Weather Stations

Elev 95 ft 59.04 °N, 158.51 °W | Updated 3 minutes ago

Overcast
Overcast
28 °F
Feels Like 28 °F
N
0
Wind Variable Wind from North

Today
High -- | Low -- °F
--% Chance of Precip.
Yesterday
High -- | Low -- °F
Precip. -- in
8:20 AM 7:13 PM
Full, 100% visible
Pressure 29.85 in
Visibility 3.0 miles
Clouds Scattered Clouds 2500 ft
Mostly Cloudy 3500 ft
Overcast 5000 ft
Dew Point 28 °F
Humidity 100%
Rainfall 0.00 in
Snow Depth Not available.
UV 0 out of 12
Pollen Not available.
Air Quality Not available.
Flu Activity Not available.
METAR PADL 051436Z 00000KT 3SM SCT025 BKN035 OVC050 M02/M02 A2985 RMK AO1

More Conditions Fewer Conditions

Pressure 29.85 in
Visibility 3.0 miles
Clouds Scattered Clouds 2500 ft
Mostly Cloudy 3500 ft
Overcast 5000 ft
Dew Point 28 °F
Humidity 100%
Rainfall 0.00 in
Snow Depth Not available.
UV 0 out of 12
Pollen Not available.
Air Quality Not available.
Flu Activity Not available.
METAR PADL 051436Z 00000KT 3SM SCT025 BKN035 OVC050 M02/M02 A2985 RMK AO1

More Conditions Fewer Conditions

10-Day Weather Forecast

Almanac

Astronomy

Mar. 05, 2015 Rise Set
Actual Time
Civil Twilight
Nautical Twilight
Astronomical Twilight
Moon
Length of Visible Light
Length of Day
Tomorrow will be .
, % of the Moon is Illuminated

Today's Extremes

State Highs State Lows

Community

WunderPhotos

Upload Photos

1,802,782 photos uploaded!

WunderBlogs® & News

Nearby

Air Quality

  Air Quality AQ Index Pollutant
Not available.

Snow Depth

Station Depth Elevation

Earthquake Activity

City Distance Mag. Time & Date
Minimum magnitude displayed is 2.5.

Coastal Water Temperatures

Place Temperature

Nearby Weather Stations